Latest Weather Observations for Point Avoid

IDS60801

Issued at 2:31 pm CDT Saturday 22 February 2020 (issued every 10 minutes, with the page automatically refreshed every 10 minutes)

About weather observations | Map of weather stations | Latest weather observations for SA | Other Formats
Station Details ID: 018230 Name: POINT AVOID Lat: -34.67 Lon: 135.34 Height: 35.0 m
Data from the previous 72 hours. | See also: Recent months at Point Avoid
Date/Time
CDT
Temp
°C
App
Temp
°C
Dew
Point
°C
Rel
Hum
%
Delta-T
°C
Wind Press
QNH
hPa
Press
MSL
hPa
Rain since
9am
mm
Dir  Spd
km/h
Gust
km/h
Spd
kts
Gust
kts
22/02:30pm 20.6 16.6 15.2 71 3.2 SSE 30 41 16 22 1019.8 1019.7 0.0
22/02:00pm 21.2 17.6 15.3 69 3.5 SSE 28 37 15 20 1020.3 1020.2 0.0
22/01:30pm 20.8 16.8 15.1 70 3.4 SSE 30 35 16 19 1020.7 1020.6 0.0
22/01:00pm 20.8 17.5 15.1 70 3.4 SSE 26 37 14 20 1021.0 1020.9 0.0
22/12:30pm 20.4 16.8 15.2 72 3.1 SSE 28 33 15 18 1021.4 1021.3 0.0
22/12:00pm 20.5 17.6 15.1 71 3.2 SSE 24 33 13 18 1021.7 1021.6 0.0
22/11:30am 20.5 17.8 14.6 69 3.4 SSE 22 28 12 15 1022.0 1021.9 0.0
22/11:00am 20.3 18.0 14.2 68 3.5 SSE 19 26 10 14 1022.2 1022.1 0.0
22/10:30am 19.5 17.3 14.5 73 2.9 SSE 19 24 10 13 1022.3 1022.2 0.0
22/10:00am 18.6 16.0 13.9 74 2.7 SE 20 24 11 13 1022.3 1022.2 0.0
22/09:30am 18.1 15.8 14.0 77 2.3 SE 19 24 10 13 1022.3 1022.2 0.0
22/09:00am 17.5 16.0 14.2 81 1.9 SE 15 19 8 10 1022.4 1022.3 0.0
22/08:30am 16.3 15.1 14.1 87 1.2 SE 13 15 7 8 1022.4 1022.3 0.0
22/08:00am 14.9 14.5 14.1 95 0.5 SE 9 13 5 7 1022.2 1022.1 0.0
22/07:30am 13.0 12.0 12.4 96 0.3 ESE 9 13 5 7 1021.9 1021.8 0.0
22/07:00am 13.2 11.9 12.4 95 0.4 ESE 11 13 6 7 1021.6 1021.5 0.0
22/06:30am 13.5 12.2 12.6 94 0.5 ESE 11 15 6 8 1021.5 1021.4 0.0
22/06:00am 13.8 12.1 12.5 92 0.7 SE 13 17 7 9 1021.4 1021.3 0.0
22/05:30am 13.6 11.4 12.0 90 0.9 SE 15 17 8 9 1021.4 1021.3 0.0
22/05:00am 13.9 12.2 12.3 90 0.9 ESE 13 17 7 9 1021.4 1021.3 0.0
22/04:30am 13.9 12.6 12.6 92 0.7 ESE 11 15 6 8 1021.5 1021.4 0.0
22/04:00am 13.9 12.2 12.3 90 0.9 ESE 13 15 7 8 1021.6 1021.5 0.0
22/03:30am 14.0 12.1 11.9 87 1.1 ESE 13 17 7 9 1021.6 1021.5 0.0
22/03:00am 13.9 11.5 11.4 85 1.3 ESE 15 20 8 11 1021.7 1021.6 0.0
22/02:30am 13.8 11.6 12.2 90 0.9 ESE 15 17 8 9 1021.9 1021.8 0.0
22/02:00am 14.6 12.8 13.3 92 0.7 ESE 15 19 8 10 1022.0 1021.9 0.0
22/01:30am 14.7 13.8 13.6 93 0.6 ESE 11 15 6 8 1022.4 1022.3 0.0
22/01:00am 15.4 13.4 13.9 91 0.8 SE 17 22 9 12 1022.6 1022.5 0.0
22/12:30am 15.6 13.3 14.0 90 0.9 SE 19 24 10 13 1022.7 1022.6 0.0
22/12:00am 15.7 13.5 14.4 92 0.7 SE 19 24 10 13 1022.9 1022.8 0.0
 
Date/Time
CDT
Temp
°C
App
Temp
°C
Dew
Point
°C
Rel
Hum
%
Delta-T
°C
Wind Press
QNH
hPa
Press
MSL
hPa
Rain since
9am
mm
Dir  Spd
km/h
Gust
km/h
Spd
kts
Gust
kts
21/11:30pm 15.9 13.5 14.3 90 0.9 SE 20 26 11 14 1023.0 1022.9 0.0
21/11:00pm 15.9 13.7 14.3 90 0.9 SE 19 24 10 13 1023.0 1022.9 0.0
21/10:30pm 16.0 13.7 14.0 88 1.1 SE 19 24 10 13 1022.9 1022.8 0.0
21/10:00pm 16.3 14.0 14.0 86 1.3 SE 19 24 10 13 1022.7 1022.6 0.0
21/09:30pm 16.3 13.6 13.6 84 1.5 SE 20 24 11 13 1022.4 1022.3 0.0
21/09:00pm 16.3 14.0 14.0 86 1.3 SE 19 24 10 13 1022.2 1022.1 0.0
21/08:30pm 16.5 13.1 13.8 84 1.5 SE 24 30 13 16 1021.9 1021.8 0.0
21/08:00pm 16.9 13.5 13.6 81 1.9 SSE 24 30 13 16 1021.7 1021.6 0.0
21/07:30pm 17.7 14.9 14.2 80 2.0 SSE 22 30 12 16 1021.5 1021.4 0.0
21/07:00pm 18.5 16.0 14.0 75 2.6 SSE 20 28 11 15 1021.4 1021.3 0.0
21/06:30pm 19.0 16.2 13.2 69 3.3 SSE 20 28 11 15 1021.4 1021.3 0.0
21/06:00pm 19.2 15.3 13.2 68 3.4 SSE 26 33 14 18 1021.2 1021.1 0.0
21/05:30pm 19.6 15.7 13.3 67 3.6 SSE 26 33 14 18 1021.0 1020.9 0.0
21/05:00pm 20.2 16.1 13.9 67 3.6 SSE 28 33 15 18 1021.0 1020.9 0.0
21/04:30pm 20.4 16.5 13.4 64 4.0 S 26 35 14 19 1021.0 1020.9 0.0
21/04:00pm 20.8 16.5 13.3 62 4.3 SSE 28 35 15 19 1021.2 1021.1 0.0
21/03:30pm 20.8 16.7 12.8 60 4.5 SSE 26 33 14 18 1021.4 1021.3 0.0
21/03:00pm 21.1 17.3 12.5 58 4.8 SSE 24 33 13 18 1021.5 1021.4 0.0
21/02:30pm 20.1 15.8 13.1 64 4.0 SSE 28 35 15 19 1021.7 1021.6 0.0
21/02:00pm 20.0 15.7 13.2 65 3.9 SSE 28 35 15 19 1021.8 1021.7 0.0
21/01:30pm 20.0 15.4 13.5 66 3.7 SSE 30 37 16 20 1022.0 1021.9 0.0
21/01:00pm 19.0 14.8 13.6 71 3.1 SSE 28 37 15 20 1022.2 1022.1 0.0
21/12:30pm 19.1 15.6 13.3 69 3.3 SSE 24 32 13 17 1022.5 1022.4 0.0
21/12:00pm 19.2 16.4 13.2 68 3.4 SSE 20 30 11 16 1022.6 1022.5 0.0
21/11:30am 17.9 15.2 13.0 73 2.7 S 19 24 10 13 1022.8 1022.7 0.0
21/11:00am 18.7 15.7 12.7 68 3.4 SSE 20 24 11 13 1022.7 1022.6 0.0
21/10:30am 18.3 15.1 13.2 72 2.9 SE 22 30 12 16 1022.5 1022.4 0.0
21/10:00am 18.8 15.5 13.9 73 2.8 SSE 24 32 13 17 1022.3 1022.2 0.0
21/09:30am 18.3 15.6 11.8 66 3.6 SE 17 24 9 13 1022.2 1022.1 0.0
21/09:00am 17.5 15.1 12.8 74 2.6 SE 17 20 9 11 1022.2 1022.1 0.0
21/08:30am 16.2 14.2 12.6 79 2.0 SE 15 19 8 10 1021.9 1021.8 0.0
21/08:00am 15.1 11.8 12.8 86 1.3 SE 22 32 12 17 1021.6 1021.5 0.0
21/07:30am 14.6 14.1 12.1 85 1.4 E 6 7 3 4 1021.1 1021.0 0.0
21/07:00am 15.3 12.4 13.0 86 1.3 ESE 20 26 11 14 1020.7 1020.6 0.0
21/06:30am 15.4 12.3 13.4 88 1.1 SE 22 32 12 17 1020.3 1020.2 0.0
21/06:00am 15.2 12.8 12.5 84 1.5 SE 17 26 9 14 1020.0 1019.9 0.0
21/05:30am 15.4 13.2 13.2 87 1.2 SE 17 30 9 16 1019.8 1019.7 0.0
21/05:00am 15.1 13.7 13.3 89 1.0 SSE 13 20 7 11 1019.7 1019.6 0.0
21/04:30am 15.1 13.3 13.3 89 1.0 SE 15 20 8 11 1019.4 1019.3 0.0
21/04:00am 14.9 12.1 12.6 86 1.3 SE 19 26 10 14 1019.4 1019.3 0.0
21/03:30am 14.9 12.2 12.8 87 1.2 SE 19 24 10 13 1019.3 1019.2 0.0
21/03:00am 15.0 12.2 12.5 85 1.4 SE 19 24 10 13 1019.4 1019.3 0.0
21/02:30am 15.5 12.1 12.6 83 1.6 SE 22 30 12 16 1019.6 1019.5 0.0
21/02:00am 15.4 12.2 13.2 87 1.2 SE 22 28 12 15 1020.1 1020.0 0.0
21/01:30am 15.4 11.8 12.9 85 1.4 SE 24 32 13 17 1020.2 1020.1 0.0
21/01:00am 15.4 11.2 12.5 83 1.6 SE 26 35 14 19 1020.4 1020.3 0.0
21/12:30am 15.6 11.9 13.8 89 1.0 SE 26 35 14 19 1020.4 1020.3 0.0
21/12:00am 15.6 11.0 13.6 88 1.1 SE 30 37 16 20 1020.3 1020.2 0.0
 
Date/Time
CDT
Temp
°C
App
Temp
°C
Dew
Point
°C
Rel
Hum
%
Delta-T
°C
Wind Press
QNH
hPa
Press
MSL
hPa
Rain since
9am
mm
Dir  Spd
km/h
Gust
km/h
Spd
kts
Gust
kts
20/11:30pm 15.4 11.5 13.2 87 1.2 SE 26 35 14 19 1020.4 1020.3 0.0
20/11:00pm 15.1 10.3 12.8 86 1.3 SSE 30 37 16 20 1020.6 1020.5 0.0
20/10:30pm 16.0 12.4 13.1 83 1.6 SSE 24 33 13 18 1020.7 1020.6 0.0
20/10:00pm 15.9 11.8 12.8 82 1.7 SSE 26 33 14 18 1020.5 1020.4 0.0
20/09:30pm 16.1 11.7 13.0 82 1.7 SSE 28 35 15 19 1020.1 1020.0 0.0
20/09:00pm 16.0 12.5 13.3 84 1.5 SSE 24 33 13 18 1019.6 1019.5 0.0
20/08:30pm 15.9 11.8 12.8 82 1.7 SSE 26 35 14 19 1019.3 1019.2 0.0
20/08:00pm 16.3 12.1 13.4 83 1.6 S 28 33 15 18 1018.9 1018.8 0.0
20/07:30pm 16.6 12.8 13.7 83 1.6 S 26 33 14 18 1018.7 1018.6 0.0
20/07:00pm 17.3 13.3 14.2 82 1.8 S 28 37 15 20 1018.5 1018.4 0.0
20/06:30pm 17.2 13.4 13.7 80 2.0 S 26 33 14 18 1018.4 1018.3 0.0
20/06:00pm 18.8 15.0 12.3 66 3.6 SSE 24 30 13 16 1018.4 1018.3 0.0
20/05:30pm 18.4 14.5 12.2 67 3.4 SSE 24 32 13 17 1018.3 1018.2 0.0
20/05:00pm 20.0 15.9 12.7 63 4.1 SSE 26 33 14 18 1018.4 1018.3 0.0
20/04:30pm 19.8 15.6 12.3 62 4.2 SSE 26 33 14 18 1018.2 1018.1 0.0
20/04:00pm 20.9 17.2 12.6 59 4.7 SSE 24 32 13 17 1018.4 1018.3 0.0
20/03:30pm 20.5 16.0 12.7 61 4.4 SSE 28 33 15 18 1018.3 1018.2 0.0
20/03:00pm 20.2 16.2 12.9 63 4.1 SSE 26 33 14 18 1018.4 1018.3 0.0
20/02:30pm 21.6 18.1 13.5 60 4.7 SSE 24 32 13 17 1018.7 1018.6 0.0
20/02:00pm 19.5 15.3 12.5 64 3.9 SSE 26 33 14 18 1018.6 1018.5 0.0
20/01:30pm 20.3 16.6 12.8 62 4.2 SSE 24 32 13 17 1018.9 1018.8 0.0
20/01:00pm 20.6 17.5 12.1 58 4.8 S 20 26 11 14 1019.0 1018.9 0.0
20/12:30pm 19.8 16.9 11.0 57 4.8 S 17 22 9 12 1019.2 1019.1 0.0
20/12:00pm 19.6 16.7 11.1 58 4.6 SSE 17 20 9 11 1019.2 1019.1 0.0
20/11:30am 18.6 16.4 10.7 60 4.3 SE 13 17 7 9 1019.3 1019.2 0.0
20/11:00am 17.9 16.1 11.0 64 3.7 SE 11 17 6 9 1019.4 1019.3 0.0
20/10:30am 17.8 15.2 10.7 63 3.8 SE 15 19 8 10 1019.3 1019.2 0.0
20/10:00am 18.2 15.6 10.8 62 4.0 SE 15 19 8 10 1019.2 1019.1 0.0
20/09:30am 17.3 15.1 10.7 65 3.5 SSE 13 17 7 9 1019.1 1019.0 0.0
20/09:00am 17.3 15.6 11.3 68 3.2 SE 11 17 6 9 1018.8 1018.7 0.0
20/08:30am 16.0 15.4 12.2 78 2.1 SE 7 11 4 6 1018.6 1018.5 0.0
20/08:00am 14.5 13.5 11.1 80 1.8 ESE 7 9 4 5 1018.4 1018.3 0.0
20/07:30am 13.5 12.7 10.9 84 1.4 ESE 6 7 3 4 1018.2 1018.1 0.0
20/07:00am 12.7 11.6 10.8 88 1.0 ESE 7 7 4 4 1017.7 1017.6 0.0
20/06:30am 12.5 11.5 11.1 91 0.7 ESE 7 7 4 4 1017.5 1017.4 0.0
20/06:00am 12.0 10.9 10.1 88 1.0 ESE 6 6 3 3 1017.4 1017.3 0.0
20/05:30am 11.3 9.7 8.9 85 1.2 ESE 7 7 4 4 1017.3 1017.2 0.0
20/05:00am 11.4 9.8 8.8 84 1.3 ESE 7 9 4 5 1017.3 1017.2 0.0
20/04:30am 11.8 9.9 9.2 84 1.3 ESE 9 11 5 6 1017.2 1017.1 0.0
20/04:00am 12.6 10.8 9.6 82 1.5 ESE 9 13 5 7 1017.2 1017.1 0.0
20/03:30am 14.5 12.1 11.5 82 1.6 SE 15 19 8 10 1017.1 1017.0 0.0
20/03:00am 15.0 12.1 11.0 77 2.1 SE 17 20 9 11 1017.3 1017.2 0.0
20/02:30am 15.0 12.1 11.0 77 2.1 SE 17 22 9 12 1017.7 1017.6 0.0
20/02:00am 15.0 12.2 11.4 79 1.9 SE 17 22 9 12 1018.2 1018.1 0.0
20/01:30am 15.3 12.1 11.3 77 2.1 SE 19 24 10 13 1018.4 1018.3 0.0
20/01:00am 15.2 11.9 11.0 76 2.2 SE 19 26 10 14 1018.6 1018.5 0.0
20/12:30am 15.3 12.2 11.7 79 1.9 SE 19 24 10 13 1018.6 1018.5 0.0
20/12:00am 15.4 12.9 12.2 81 1.7 SE 17 22 9 12 1019.0 1018.9 0.0
 
Date/Time
CDT
Temp
°C
App
Temp
°C
Dew
Point
°C
Rel
Hum
%
Delta-T
°C
Wind Press
QNH
hPa
Press
MSL
hPa
Rain since
9am
mm
Dir  Spd
km/h
Gust
km/h
Spd
kts
Gust
kts
19/11:30pm 15.6 13.1 12.4 81 1.8 SSE 17 20 9 11 1019.3 1019.2 0.0
19/11:00pm 15.7 12.8 12.3 80 1.9 SSE 19 24 10 13 1019.2 1019.1 0.0
19/10:30pm 15.7 12.6 12.1 79 2.0 SSE 20 26 11 14 1018.9 1018.8 0.0
19/10:00pm 15.7 12.7 11.9 78 2.1 SSE 19 24 10 13 1018.9 1018.8 0.0
19/09:30pm 15.7 12.6 11.5 76 2.3 SSE 19 24 10 13 1018.8 1018.7 0.0
19/09:00pm 15.9 12.8 11.7 76 2.3 SSE 19 26 10 14 1018.7 1018.6 0.0
19/08:30pm 16.0 12.7 11.0 72 2.7 SSE 19 24 10 13 1018.6 1018.5 0.0
19/08:00pm 16.4 13.0 10.5 68 3.1 SSE 19 22 10 12 1018.5 1018.4 0.0
19/07:30pm 16.7 13.3 10.5 67 3.3 SSE 19 24 10 13 1018.4 1018.3 0.0
19/07:00pm 17.8 14.2 10.7 63 3.8 SSE 20 28 11 15 1018.5 1018.4 0.0
19/06:30pm 18.4 14.7 10.3 59 4.3 SSE 20 26 11 14 1018.2 1018.1 0.0
19/06:00pm 19.6 15.9 11.4 59 4.5 SSE 22 30 12 16 1018.0 1017.9 0.0
19/05:30pm 19.3 15.4 10.8 58 4.6 SSE 22 28 12 15 1018.0 1017.9 0.0
19/05:00pm 19.3 15.1 11.1 59 4.5 SSE 24 32 13 17 1018.0 1017.9 0.0
19/04:30pm 19.0 15.2 12.5 66 3.6 SSE 24 32 13 17 1018.2 1018.1 0.0
19/04:00pm 19.0 15.2 11.3 61 4.2 SSE 22 28 12 15 1018.4 1018.3 0.0
19/03:30pm 19.4 15.4 11.9 62 4.2 SSE 24 32 13 17 1018.6 1018.5 0.0
19/03:00pm 19.9 16.7 11.9 60 4.4 SSE 20 26 11 14 1019.1 1019.0 0.0

Other formats

Comma delimited format used in spreadsheet applications
http://www.bom.gov.au/fwo/IDS60801/IDS60801.95649.axf

JavaScript Object Notation format (JSON) in row-major order
http://www.bom.gov.au/fwo/IDS60801/IDS60801.95649.json

Data quality

Most of these data are generated automatically and are frequently updated. Quality checks on data are not normally performed. It is possible for incorrect values to appear. Refer to information at About Latest Weather Observations and please check the disclaimer before using these data.